createdAt,value
2023-03-16T00:03:38.958Z,17.05
2023-03-16T00:08:39.703Z,16.95
2023-03-16T00:13:42.798Z,12.48
2023-03-16T00:18:45.192Z,16.67
2023-03-16T00:23:45.829Z,18.23
2023-03-16T00:28:46.455Z,17.25
2023-03-16T00:33:48.432Z,19.83
2023-03-16T00:38:50.067Z,15.07
2023-03-16T00:43:51.789Z,14.82
2023-03-16T00:48:54.015Z,17.52
2023-03-16T00:53:54.701Z,13.93
2023-03-16T00:58:57.817Z,13.95
2023-03-16T01:04:00.335Z,16.70
2023-03-16T01:09:01.002Z,15.82
2023-03-16T01:14:01.796Z,14.88
2023-03-16T01:19:03.899Z,11.43
2023-03-16T01:24:05.006Z,13.23
2023-03-16T01:29:05.685Z,14.02
2023-03-16T01:34:08.441Z,16.45
2023-03-16T01:39:09.164Z,16.50
2023-03-16T01:44:16.822Z,14.45
2023-03-16T01:49:23.862Z,16.48
2023-03-16T01:54:29.555Z,17.60
2023-03-16T01:59:34.013Z,17.58
2023-03-16T02:04:44.987Z,16.58
2023-03-16T02:09:52.752Z,17.70
2023-03-16T02:14:53.855Z,18.80
2023-03-16T02:20:07.231Z,22.10
2023-03-16T02:25:10.825Z,17.20
2023-03-16T02:30:15.421Z,15.75
2023-03-16T02:35:32.671Z,15.60
2023-03-16T02:40:36.335Z,13.27
2023-03-16T02:45:46.873Z,18.90
2023-03-16T02:50:54.026Z,21.73
2023-03-16T02:55:55.955Z,18.45
2023-03-16T03:00:58.584Z,17.88
2023-03-16T03:05:59.245Z,21.05
2023-03-16T03:11:00.802Z,19.33
2023-03-16T03:16:02.967Z,16.33
2023-03-16T03:21:03.704Z,20.35
2023-03-16T03:26:05.242Z,20.38
2023-03-16T03:31:08.616Z,15.45
2023-03-16T03:36:09.500Z,17.15
2023-03-16T03:41:11.225Z,24.50
2023-03-16T03:46:14.711Z,11.75
2023-03-16T03:51:15.519Z,19.58
2023-03-16T03:56:19.377Z,17.42
2023-03-16T04:01:21.742Z,17.80
2023-03-16T04:06:22.410Z,17.13
2023-03-16T04:11:23.284Z,17.83
2023-03-16T04:16:27.226Z,16.85
2023-03-16T04:21:30.033Z,16.02
2023-03-16T04:26:30.994Z,17.48
2023-03-16T04:31:33.514Z,13.15
2023-03-16T04:36:34.791Z,16.92
2023-03-16T04:41:36.409Z,16.92
2023-03-16T04:46:46.198Z,16.13
2023-03-16T04:51:47.356Z,19.38
2023-03-16T04:56:52.422Z,14.43
2023-03-16T05:02:12.842Z,16.52
2023-03-16T05:07:13.673Z,16.85
2023-03-16T05:12:18.359Z,16.30
2023-03-16T05:17:22.694Z,14.07
2023-03-16T05:22:24.314Z,15.77
2023-03-16T05:27:43.743Z,14.93
2023-03-16T05:32:49.440Z,19.60
2023-03-16T05:37:50.571Z,12.65
2023-03-16T05:42:57.074Z,15.90
2023-03-16T05:47:59.788Z,13.45
2023-03-16T05:53:01.561Z,19.30
2023-03-16T05:58:04.271Z,12.95
2023-03-16T06:03:11.109Z,14.18
2023-03-16T06:08:12.701Z,21.60
2023-03-16T06:13:16.626Z,15.38
2023-03-16T06:18:18.697Z,18.70
2023-03-16T06:23:20.400Z,14.27
2023-03-16T06:28:22.338Z,13.48
2023-03-16T06:33:25.793Z,11.90
2023-03-16T06:38:26.737Z,19.27
2023-03-16T06:43:33.282Z,14.80
2023-03-16T06:48:35.867Z,14.93
2023-03-16T06:53:37.592Z,13.48
2023-03-16T06:58:38.434Z,15.40
2023-03-16T07:03:40.580Z,14.07
2023-03-16T07:08:50.480Z,16.98
2023-03-16T07:13:52.761Z,18.75
2023-03-16T07:18:57.932Z,13.88
2023-03-16T07:23:59.120Z,11.27
2023-03-16T07:29:05.109Z,12.35
2023-03-16T07:34:08.199Z,13.00
2023-03-16T07:39:17.846Z,21.35
2023-03-16T07:44:19.938Z,23.67
2023-03-16T07:49:23.928Z,11.57
2023-03-16T07:54:26.984Z,14.45
2023-03-16T07:59:27.790Z,13.33
2023-03-16T08:04:30.108Z,12.38
2023-03-16T08:09:55.666Z,11.25
2023-03-16T08:15:05.947Z,14.80
2023-03-16T08:20:10.651Z,9.10
2023-03-16T08:25:11.763Z,15.23
2023-03-16T08:30:19.082Z,9.18
2023-03-16T08:35:29.717Z,11.60
2023-03-16T08:40:31.166Z,8.70
2023-03-16T08:45:33.817Z,9.98
2023-03-16T08:50:35.870Z,8.13
2023-03-16T08:55:36.897Z,10.20
2023-03-16T09:00:38.287Z,10.60
2023-03-16T09:05:40.460Z,9.93
2023-03-16T09:10:41.671Z,12.35
2023-03-16T09:15:43.005Z,9.65
2023-03-16T09:20:47.754Z,4.53
2023-03-16T09:25:48.409Z,13.35
2023-03-16T09:30:50.046Z,8.25
2023-03-16T09:35:52.359Z,9.05
2023-03-16T09:41:00.804Z,7.53
2023-03-16T09:46:11.308Z,2.78
2023-03-16T09:51:24.624Z,6.78
2023-03-16T09:56:34.666Z,12.05
2023-03-16T10:01:48.311Z,6.35
2023-03-16T10:07:02.591Z,8.82
2023-03-16T10:12:08.734Z,6.60
2023-03-16T10:17:16.891Z,8.88
2023-03-16T10:22:22.566Z,7.18
2023-03-16T10:27:29.550Z,8.98
2023-03-16T10:32:36.703Z,4.22
2023-03-16T10:37:40.615Z,5.13
2023-03-16T10:42:41.614Z,4.47
2023-03-16T10:47:42.814Z,5.07
2023-03-16T10:52:48.108Z,7.63
2023-03-16T10:57:51.664Z,5.40
2023-03-16T11:02:55.289Z,5.47
2023-03-16T11:08:02.085Z,8.13
2023-03-16T11:13:04.582Z,9.23
2023-03-16T11:18:05.513Z,4.80
2023-03-16T11:23:16.461Z,4.20
2023-03-16T11:28:26.052Z,4.45
2023-03-16T11:33:31.042Z,5.72
2023-03-16T11:38:37.642Z,4.30
2023-03-16T11:43:50.164Z,4.50
2023-03-16T11:49:29.140Z,5.65
2023-03-16T11:54:48.677Z,5.43
2023-03-16T12:00:04.401Z,10.38
2023-03-16T12:05:34.601Z,15.13
2023-03-16T12:10:44.698Z,4.57
2023-03-16T12:15:48.435Z,7.00
2023-03-16T12:20:55.137Z,5.18
2023-03-16T12:26:00.876Z,3.08
2023-03-16T12:31:09.999Z,5.25
2023-03-16T12:36:41.749Z,6.80
2023-03-16T12:42:00.598Z,8.43
2023-03-16T12:47:08.541Z,8.60
2023-03-16T12:52:12.488Z,4.95
2023-03-16T12:57:18.556Z,6.47
2023-03-16T13:02:22.236Z,8.10
2023-03-16T13:07:26.271Z,4.68
2023-03-16T13:12:31.446Z,6.57
2023-03-16T13:17:33.468Z,7.85
2023-03-16T13:22:45.729Z,3.92
2023-03-16T13:27:50.827Z,4.43
2023-03-16T13:32:55.182Z,5.88
2023-03-16T13:37:56.437Z,6.60
2023-03-16T13:43:00.794Z,5.07
2023-03-16T13:48:02.120Z,7.53
2023-03-16T13:53:05.711Z,7.35
2023-03-16T13:58:22.493Z,8.90
2023-03-16T14:03:24.765Z,6.28
2023-03-16T14:08:26.296Z,5.80
2023-03-16T14:13:36.280Z,7.95
2023-03-16T14:18:40.956Z,6.25
2023-03-16T14:23:45.516Z,11.43
2023-03-16T14:28:58.418Z,6.63
2023-03-16T14:34:01.877Z,7.63
2023-03-16T14:39:12.042Z,5.63
2023-03-16T14:44:22.821Z,9.98
2023-03-16T14:49:27.968Z,7.05
2023-03-16T14:54:29.935Z,12.27
2023-03-16T14:59:32.263Z,5.88
2023-03-16T15:04:35.663Z,11.13
2023-03-16T15:09:43.418Z,7.47
2023-03-16T15:15:03.408Z,9.13
2023-03-16T15:20:05.302Z,8.75
2023-03-16T15:25:21.347Z,7.05
2023-03-16T15:30:25.728Z,8.52
2023-03-16T15:35:26.475Z,6.95
2023-03-16T15:40:29.785Z,5.97
2023-03-16T15:45:32.050Z,8.45
2023-03-16T15:50:32.943Z,9.23
2023-03-16T15:55:37.669Z,13.63
2023-03-16T16:00:41.030Z,9.80
2023-03-16T16:05:42.024Z,10.48
2023-03-16T16:10:44.661Z,8.82
2023-03-16T16:15:47.977Z,12.10
2023-03-16T16:20:49.311Z,12.15
2023-03-16T16:25:51.334Z,7.63
2023-03-16T16:30:53.590Z,6.38
2023-03-16T16:35:55.666Z,14.63
2023-03-16T16:40:58.732Z,11.07
2023-03-16T16:46:01.806Z,9.60
2023-03-16T16:51:02.627Z,7.00
2023-03-16T16:56:03.755Z,8.70
2023-03-16T17:01:06.382Z,8.30
2023-03-16T17:06:07.625Z,9.57
2023-03-16T17:11:14.113Z,6.00
2023-03-16T17:16:18.283Z,7.30
2023-03-16T17:21:21.348Z,13.52
2023-03-16T17:26:24.458Z,7.60
2023-03-16T17:31:30.978Z,7.97
2023-03-16T17:36:31.990Z,14.48
2023-03-16T17:41:33.358Z,8.68
2023-03-16T17:46:36.384Z,10.57
2023-03-16T17:51:40.284Z,10.27
2023-03-16T17:56:41.813Z,12.98
2023-03-16T18:01:45.811Z,8.63
2023-03-16T18:06:48.161Z,10.32
2023-03-16T18:11:50.953Z,10.25
2023-03-16T18:16:54.610Z,8.13
2023-03-16T18:21:55.377Z,10.10
2023-03-16T18:26:56.539Z,9.60
2023-03-16T18:31:59.251Z,13.82
2023-03-16T18:37:06.057Z,10.35
2023-03-16T18:42:07.647Z,10.73
2023-03-16T18:47:18.473Z,9.13
2023-03-16T18:52:21.100Z,9.15
2023-03-16T18:57:25.132Z,8.85
2023-03-16T19:02:37.208Z,11.98
2023-03-16T19:07:41.012Z,11.85
2023-03-16T19:12:41.749Z,8.18
2023-03-16T19:17:43.823Z,6.05
2023-03-16T19:22:46.028Z,8.63
2023-03-16T19:27:47.214Z,8.05
2023-03-16T19:32:49.283Z,8.27
2023-03-16T19:37:50.318Z,13.25
2023-03-16T19:42:51.926Z,10.55
2023-03-16T19:47:53.972Z,9.07
2023-03-16T19:52:55.625Z,9.07
2023-03-16T19:58:01.462Z,14.50
2023-03-16T20:03:03.530Z,8.10
2023-03-16T20:08:22.172Z,9.85
2023-03-16T20:13:24.507Z,8.57
2023-03-16T20:18:28.770Z,10.30
2023-03-16T20:23:30.975Z,8.13
2023-03-16T20:28:35.528Z,7.40
2023-03-16T20:33:42.298Z,9.57
2023-03-16T20:38:44.241Z,15.00
2023-03-16T20:43:45.452Z,6.55
2023-03-16T20:48:48.096Z,8.93
2023-03-16T20:53:49.979Z,11.48
2023-03-16T20:58:54.716Z,6.72
2023-03-16T21:03:56.886Z,8.68
2023-03-16T21:08:59.536Z,6.63
2023-03-16T21:14:00.533Z,11.00
2023-03-16T21:19:02.585Z,9.90
2023-03-16T21:24:03.605Z,10.93
2023-03-16T21:29:08.313Z,7.47
2023-03-16T21:34:23.794Z,7.88
2023-03-16T21:39:25.354Z,8.55
2023-03-16T21:44:26.188Z,8.45
2023-03-16T21:49:28.414Z,8.93
2023-03-16T21:54:29.157Z,13.05
2023-03-16T21:59:29.833Z,9.15
2023-03-16T22:04:31.898Z,10.60
2023-03-16T22:09:33.159Z,8.18
2023-03-16T22:14:33.975Z,10.43
2023-03-16T22:19:36.122Z,18.85
2023-03-16T22:24:37.209Z,9.77
2023-03-16T22:29:37.950Z,12.02
2023-03-16T22:34:43.496Z,14.18
2023-03-16T22:39:44.825Z,11.65
2023-03-16T22:44:45.481Z,13.40
2023-03-16T22:49:47.481Z,13.82
2023-03-16T22:54:48.926Z,13.52
2023-03-16T22:59:50.637Z,10.90
2023-03-16T23:04:53.009Z,10.13
2023-03-16T23:09:53.807Z,10.73
2023-03-16T23:14:54.554Z,13.23
2023-03-16T23:19:56.586Z,8.65
2023-03-16T23:24:57.275Z,9.98
2023-03-16T23:29:57.931Z,13.55
2023-03-16T23:35:00.408Z,13.93
2023-03-16T23:40:01.349Z,12.68
2023-03-16T23:45:09.012Z,7.85
2023-03-16T23:50:14.657Z,8.93
2023-03-16T23:55:16.155Z,10.20
